EIDL

Donegal Airport

Donegal, Ireland
METAR EIDL 231000Z 17024KT CAVOK 05/M01 Q1015
Observed Flight Rules
Feb-23 @ 10:00 UTC (27 minutes ago) Visual Flight Rules
Wind Visibility Clouds
170° at 24 knots 10,000+ meters
  • Clear skies
Temperatures Readings
Current 5°C / 41°F
Dewpoint -1°C / 30°F
Humidity 66%
Altimeter 29.97" Hg
Pressure 1015 hPa
Elevation 9
METAR EIDL 231000Z 17024KT CAVOK 05/M01 Q1015
Observed Flight Rules
Feb-23 @ 10:00 UTC
(27 minutes ago)
VFR
Wind Visibility
170° at 24 knots 10,000+ meters
Clouds
  • Clear skies
Temperature Dewpoint
5°C / 41°F -1°C / 30°F
Humidity Altimeter Pressure
66% 29.97" Hg 1015 hPa